»·PEaware :: BOE418 KPDX-KBFI

BOE418 :: KPDX-KBFI

FLIGHT INFORMATION

Flight Status: Arrived
Operator:
Boeing Commercial Airplane Group
More flights by this operator :: More flights under this callsign
Pilot: Ryan L. (9775)
Aircraft: BOEING 737-800
(B738)
More flights by this aircraft type
Origin: KPDX Portland Intl
United States
Destination: KBFI Boeing Field/King Co Intl
United States
More flights between these airports :: More routes between these airports
Route: BTG OLM2
File this flight plan on PilotEdge
Remarks:
Altitude:
(Current/Filed)
16,000ft
Speed:
(Current/Filed)
400kts
Departed: 08-Oct-18 05:04 PM
Arrived: 08-Oct-18 05:50 PM
Distance/Time
Traveled:
117nm/0:45
Distance/Time
To Go:
Arrived

Flight Plot

Page will automatically refresh every two minutes.


Map Options




Map Legend


Flown Route
Filed Route
Departure Airport
Arrival Airport
Navaid (VOR, NDB)
Fix

Horizontal Profiles

Position Reports

Time Latitude Longitude Heading Altitude Ground
Speed
08-Oct-18 16:23 45.581983 -122.580182 27 37ft 0kts
08-Oct-18 16:24 45.581983 -122.580182 27 37ft 0kts
08-Oct-18 16:25 45.581983 -122.580182 27 37ft 0kts
08-Oct-18 16:26 45.581983 -122.580182 27 37ft 0kts
08-Oct-18 16:27 45.581983 -122.580182 27 37ft 0kts
08-Oct-18 16:28 45.581983 -122.580182 27 37ft 0kts
08-Oct-18 16:29 45.581983 -122.580182 27 37ft 0kts
08-Oct-18 16:30 45.581983 -122.580182 27 37ft 0kts
08-Oct-18 16:31 45.581983 -122.580182 27 37ft 0kts
08-Oct-18 16:32 45.581983 -122.580182 27 37ft 0kts
08-Oct-18 16:33 45.581983 -122.580182 27 37ft 0kts
08-Oct-18 16:34 45.581983 -122.580182 27 37ft 0kts
08-Oct-18 16:35 45.581983 -122.580182 28 37ft 0kts
08-Oct-18 16:36 45.581983 -122.580182 28 37ft 0kts
08-Oct-18 16:37 45.582026 -122.580056 76 37ft 2kts
08-Oct-18 16:38 45.581649 -122.579746 212 37ft 0kts
08-Oct-18 16:39 45.581649 -122.579746 212 37ft 0kts
08-Oct-18 16:40 45.581894 -122.582620 257 37ft 13kts
08-Oct-18 16:41 45.582989 -122.587042 299 37ft 16kts
08-Oct-18 16:42 45.585287 -122.592943 299 36ft 18kts
08-Oct-18 16:43 45.588079 -122.600120 299 36ft 22kts
08-Oct-18 16:44 45.590899 -122.602555 45 37ft 13kts
08-Oct-18 16:45 45.593195 -122.599261 44 37ft 14kts
08-Oct-18 16:46 45.594401 -122.597568 44 37ft 0kts
08-Oct-18 16:47 45.594401 -122.597568 44 37ft 0kts
08-Oct-18 16:48 45.594401 -122.597568 44 37ft 0kts
08-Oct-18 16:49 45.594535 -122.597377 45 37ft 6kts
08-Oct-18 16:50 45.594708 -122.595379 121 37ft 3kts
08-Oct-18 16:51 45.592275 -122.589795 185 37ft 9kts
08-Oct-18 16:52 45.592083 -122.590912 268 37ft 0kts
08-Oct-18 16:53 45.592083 -122.590912 268 37ft 0kts
08-Oct-18 16:54 45.592083 -122.590912 268 37ft 0kts
08-Oct-18 16:55 45.592083 -122.590912 268 37ft 0kts
08-Oct-18 16:56 45.592083 -122.590912 268 37ft 0kts
08-Oct-18 16:57 45.592083 -122.590912 268 37ft 0kts
08-Oct-18 16:58 45.592083 -122.590912 268 37ft 0kts
08-Oct-18 16:59 45.592083 -122.590912 268 37ft 0kts
08-Oct-18 17:00 45.592083 -122.590912 268 37ft 0kts
08-Oct-18 17:01 45.592083 -122.590912 268 37ft 0kts
08-Oct-18 17:02 45.592083 -122.590912 268 37ft 0kts
08-Oct-18 17:03 45.592442 -122.592778 298 37ft 22kts
08-Oct-18 17:04 45.594388 -122.597359 0 37ft 0kts
08-Oct-18 17:05 45.594901 -122.596547 76 37ft 11kts
08-Oct-18 17:06 45.584123 -122.568693 120 477ft 161kts
08-Oct-18 17:07 45.562222 -122.511679 116 2587ft 190kts
08-Oct-18 17:08 45.550306 -122.440838 48 4446ft 213kts
08-Oct-18 17:09 45.609933 -122.420835 326 6542ft 257kts
08-Oct-18 17:10 45.663247 -122.484961 318 9790ft 260kts
08-Oct-18 17:11 45.719890 -122.556356 317 12300ft 288kts
08-Oct-18 17:12 45.789774 -122.606832 348 15553ft 304kts
08-Oct-18 17:13 45.879613 -122.624309 345 16034ft 358kts
08-Oct-18 17:14 45.977302 -122.648790 345 16026ft 364kts
08-Oct-18 17:15 46.076088 -122.673551 346 16024ft 364kts
08-Oct-18 17:16 46.121328 -122.684913 345 16033ft 364kts
08-Oct-18 17:17 46.171722 -122.697589 346 16032ft 364kts
08-Oct-18 17:18 46.263781 -122.720812 346 16031ft 364kts
08-Oct-18 17:19 46.361556 -122.745549 346 16030ft 364kts
08-Oct-18 17:20 46.460035 -122.770560 346 16029ft 364kts
08-Oct-18 17:21 46.556137 -122.795056 346 16028ft 364kts
08-Oct-18 17:22 46.654222 -122.820147 346 16027ft 364kts
08-Oct-18 17:23 46.743355 -122.843027 346 16026ft 364kts
08-Oct-18 17:24 46.837669 -122.867168 345 16004ft 314kts
08-Oct-18 17:25 46.919261 -122.888232 345 16024ft 299kts
08-Oct-18 17:26 47.002625 -122.863964 27 16032ft 337kts
08-Oct-18 17:27 47.058854 -122.791443 33 16035ft 332kts
08-Oct-18 17:28 47.119031 -122.714155 33 16004ft 333kts
08-Oct-18 17:29 47.162203 -122.658978 34 14486ft 342kts
08-Oct-18 17:30 47.205072 -122.603540 33 13706ft 306kts
08-Oct-18 17:31 47.236018 -122.563614 33 13027ft 286kts
08-Oct-18 17:32 47.239811 -122.558686 33 13026ft 281kts
08-Oct-18 17:33 47.239811 -122.558686 33 13026ft 281kts
08-Oct-18 17:34 47.250294 -122.545065 32 13008ft 268kts
08-Oct-18 17:35 47.306543 -122.526132 354 10920ft 266kts
08-Oct-18 17:36 47.376866 -122.528071 354 9305ft 250kts
08-Oct-18 17:37 47.441085 -122.530664 354 8497ft 219kts
08-Oct-18 17:38 47.485611 -122.532587 354 7832ft 205kts
08-Oct-18 17:39 47.539711 -122.548700 334 6707ft 204kts
08-Oct-18 17:40 47.590245 -122.582531 334 5652ft 204kts
08-Oct-18 17:41 47.639002 -122.616462 330 4667ft 204kts
08-Oct-18 17:42 47.675179 -122.591123 63 3990ft 193kts
08-Oct-18 17:43 47.695872 -122.520444 64 2561ft 187kts
08-Oct-18 17:44 47.686575 -122.457248 124 2222ft 185kts
08-Oct-18 17:45 47.652130 -122.406389 148 2193ft 168kts
08-Oct-18 17:46 47.643492 -122.398738 149 2231ft 167kts
08-Oct-18 17:47 47.622138 -122.380511 149 1853ft 143kts
08-Oct-18 17:48 47.588838 -122.352240 149 1136ft 139kts
08-Oct-18 17:49 47.557884 -122.326082 150 444ft 138kts
08-Oct-18 17:50 47.557707 -122.325931 150 440ft 138kts
08-Oct-18 17:51 47.545331 -122.315484 151 162ft 138kts
08-Oct-18 17:52 47.524177 -122.297522 150 28ft 26kts
08-Oct-18 17:53 47.522479 -122.297087 238 28ft 0kts
08-Oct-18 17:54 47.522479 -122.297087 238 28ft 0kts

Navigation Log

Ident Type
Flight plan parsing failed, navigation log unavailable